sensor_id;sensor_type;location;lat;lon;timestamp;temperature;humidity
46754;DHT22;32500;50.620;3.400;2023-07-20T00:01:52;20.10;71.00
46754;DHT22;32500;50.620;3.400;2023-07-20T00:04:18;20.10;71.10
46754;DHT22;32500;50.620;3.400;2023-07-20T00:06:44;20.10;71.20
46754;DHT22;32500;50.620;3.400;2023-07-20T00:09:09;20.10;71.10
46754;DHT22;32500;50.620;3.400;2023-07-20T00:11:38;20.10;71.20
46754;DHT22;32500;50.620;3.400;2023-07-20T00:14:05;20.10;71.20
46754;DHT22;32500;50.620;3.400;2023-07-20T00:16:30;20.00;71.20
46754;DHT22;32500;50.620;3.400;2023-07-20T00:18:56;20.00;71.30
46754;DHT22;32500;50.620;3.400;2023-07-20T00:21:21;20.00;71.20
46754;DHT22;32500;50.620;3.400;2023-07-20T00:23:47;20.00;71.30
46754;DHT22;32500;50.620;3.400;2023-07-20T00:26:12;20.00;71.30
46754;DHT22;32500;50.620;3.400;2023-07-20T00:28:38;20.00;71.40
46754;DHT22;32500;50.620;3.400;2023-07-20T00:31:04;19.90;71.40
46754;DHT22;32500;50.620;3.400;2023-07-20T00:33:30;19.90;71.40
46754;DHT22;32500;50.620;3.400;2023-07-20T00:35:59;19.90;72.10
46754;DHT22;32500;50.620;3.400;2023-07-20T00:38:24;19.90;71.50
46754;DHT22;32500;50.620;3.400;2023-07-20T00:40:51;19.80;71.40
46754;DHT22;32500;50.620;3.400;2023-07-20T00:43:16;19.80;71.40
46754;DHT22;32500;50.620;3.400;2023-07-20T00:45:42;19.80;71.60
46754;DHT22;32500;50.620;3.400;2023-07-20T00:48:08;19.80;71.70
46754;DHT22;32500;50.620;3.400;2023-07-20T00:50:34;19.80;72.10
46754;DHT22;32500;50.620;3.400;2023-07-20T00:53:00;19.80;71.90
46754;DHT22;32500;50.620;3.400;2023-07-20T00:55:29;19.80;71.70
46754;DHT22;32500;50.620;3.400;2023-07-20T00:57:55;19.80;71.80
46754;DHT22;32500;50.620;3.400;2023-07-20T01:00:21;19.80;71.90
46754;DHT22;32500;50.620;3.400;2023-07-20T01:02:46;19.70;71.90
46754;DHT22;32500;50.620;3.400;2023-07-20T01:05:13;19.70;72.10
46754;DHT22;32500;50.620;3.400;2023-07-20T01:07:59;19.70;71.80
46754;DHT22;32500;50.620;3.400;2023-07-20T01:10:42;19.70;71.90
46754;DHT22;32500;50.620;3.400;2023-07-20T01:13:10;19.70;72.20
46754;DHT22;32500;50.620;3.400;2023-07-20T01:15:36;19.70;72.10
46754;DHT22;32500;50.620;3.400;2023-07-20T01:18:02;19.70;71.90
46754;DHT22;32500;50.620;3.400;2023-07-20T01:20:31;19.70;72.20
46754;DHT22;32500;50.620;3.400;2023-07-20T01:29:01;19.60;72.20
46754;DHT22;32500;50.620;3.400;2023-07-20T01:31:32;19.60;72.00
46754;DHT22;32500;50.620;3.400;2023-07-20T01:34:00;19.60;72.00
46754;DHT22;32500;50.620;3.400;2023-07-20T01:36:29;19.60;72.60
46754;DHT22;32500;50.620;3.400;2023-07-20T01:38:56;19.60;71.90
46754;DHT22;32500;50.620;3.400;2023-07-20T01:41:22;19.60;71.90
46754;DHT22;32500;50.620;3.400;2023-07-20T01:43:48;19.50;71.90
46754;DHT22;32500;50.620;3.400;2023-07-20T01:46:14;19.50;71.80
46754;DHT22;32500;50.620;3.400;2023-07-20T01:48:39;19.50;72.10
46754;DHT22;32500;50.620;3.400;2023-07-20T01:51:05;19.50;72.80
46754;DHT22;32500;50.620;3.400;2023-07-20T01:53:30;19.50;72.40
46754;DHT22;32500;50.620;3.400;2023-07-20T01:55:57;19.50;72.50
46754;DHT22;32500;50.620;3.400;2023-07-20T01:58:22;19.50;72.60
46754;DHT22;32500;50.620;3.400;2023-07-20T02:00:48;19.50;72.60
46754;DHT22;32500;50.620;3.400;2023-07-20T02:03:14;19.40;72.50
46754;DHT22;32500;50.620;3.400;2023-07-20T02:05:42;19.40;72.60
46754;DHT22;32500;50.620;3.400;2023-07-20T02:08:08;19.40;72.50
46754;DHT22;32500;50.620;3.400;2023-07-20T02:10:34;19.40;72.50
46754;DHT22;32500;50.620;3.400;2023-07-20T02:12:59;19.40;72.70
46754;DHT22;32500;50.620;3.400;2023-07-20T02:15:25;19.40;72.40
46754;DHT22;32500;50.620;3.400;2023-07-20T02:17:51;19.40;72.70
46754;DHT22;32500;50.620;3.400;2023-07-20T02:20:16;19.40;72.40
46754;DHT22;32500;50.620;3.400;2023-07-20T02:22:43;19.30;72.30
46754;DHT22;32500;50.620;3.400;2023-07-20T02:25:09;19.30;72.40
46754;DHT22;32500;50.620;3.400;2023-07-20T02:27:35;19.40;72.90
46754;DHT22;32500;50.620;3.400;2023-07-20T02:30:00;19.30;72.40
46754;DHT22;32500;50.620;3.400;2023-07-20T02:32:26;19.30;72.60
46754;DHT22;32500;50.620;3.400;2023-07-20T02:34:52;19.30;72.00
46754;DHT22;32500;50.620;3.400;2023-07-20T02:37:17;19.30;72.10
46754;DHT22;32500;50.620;3.400;2023-07-20T02:39:43;19.30;72.90
46754;DHT22;32500;50.620;3.400;2023-07-20T02:42:09;19.30;72.40
46754;DHT22;32500;50.620;3.400;2023-07-20T02:44:34;19.30;72.10
46754;DHT22;32500;50.620;3.400;2023-07-20T02:47:00;19.30;72.10
46754;DHT22;32500;50.620;3.400;2023-07-20T02:49:26;19.30;72.50
46754;DHT22;32500;50.620;3.400;2023-07-20T02:51:52;19.20;72.50
46754;DHT22;32500;50.620;3.400;2023-07-20T02:54:18;19.20;72.70
46754;DHT22;32500;50.620;3.400;2023-07-20T02:56:43;19.20;72.50
46754;DHT22;32500;50.620;3.400;2023-07-20T02:59:09;19.20;72.60
46754;DHT22;32500;50.620;3.400;2023-07-20T03:01:35;19.20;72.50
46754;DHT22;32500;50.620;3.400;2023-07-20T03:04:00;19.10;72.30
46754;DHT22;32500;50.620;3.400;2023-07-20T03:06:26;19.10;73.00
46754;DHT22;32500;50.620;3.400;2023-07-20T03:08:51;19.10;72.70
46754;DHT22;32500;50.620;3.400;2023-07-20T03:11:19;19.10;72.80
46754;DHT22;32500;50.620;3.400;2023-07-20T03:13:46;19.10;72.60
46754;DHT22;32500;50.620;3.400;2023-07-20T03:16:13;19.10;73.00
46754;DHT22;32500;50.620;3.400;2023-07-20T03:18:41;19.10;73.00
46754;DHT22;32500;50.620;3.400;2023-07-20T03:21:08;19.10;73.10
46754;DHT22;32500;50.620;3.400;2023-07-20T03:23:34;19.10;73.00
46754;DHT22;32500;50.620;3.400;2023-07-20T03:26:00;19.10;73.00
46754;DHT22;32500;50.620;3.400;2023-07-20T03:28:25;19.10;73.40
46754;DHT22;32500;50.620;3.400;2023-07-20T03:30:57;19.10;72.80
46754;DHT22;32500;50.620;3.400;2023-07-20T03:33:25;19.00;72.60
46754;DHT22;32500;50.620;3.400;2023-07-20T03:35:51;19.00;73.20
46754;DHT22;32500;50.620;3.400;2023-07-20T03:38:16;19.00;73.00
46754;DHT22;32500;50.620;3.400;2023-07-20T03:40:56;19.00;73.10
46754;DHT22;32500;50.620;3.400;2023-07-20T03:43:23;19.00;73.20
46754;DHT22;32500;50.620;3.400;2023-07-20T03:45:49;19.00;73.40
46754;DHT22;32500;50.620;3.400;2023-07-20T03:48:19;19.00;73.00
46754;DHT22;32500;50.620;3.400;2023-07-20T03:50:45;18.90;72.80
46754;DHT22;32500;50.620;3.400;2023-07-20T03:53:12;18.90;73.00
46754;DHT22;32500;50.620;3.400;2023-07-20T03:55:37;18.90;73.20
46754;DHT22;32500;50.620;3.400;2023-07-20T03:58:03;18.90;73.40
46754;DHT22;32500;50.620;3.400;2023-07-20T04:00:29;18.90;73.10
46754;DHT22;32500;50.620;3.400;2023-07-20T04:02:55;18.90;73.00
46754;DHT22;32500;50.620;3.400;2023-07-20T04:05:20;18.80;72.90
46754;DHT22;32500;50.620;3.400;2023-07-20T04:07:46;18.90;72.90
46754;DHT22;32500;50.620;3.400;2023-07-20T04:10:12;18.80;73.20
46754;DHT22;32500;50.620;3.400;2023-07-20T04:12:38;18.80;73.90
46754;DHT22;32500;50.620;3.400;2023-07-20T04:15:04;18.80;73.90
46754;DHT22;32500;50.620;3.400;2023-07-20T04:17:29;18.80;73.60
46754;DHT22;32500;50.620;3.400;2023-07-20T04:19:55;18.80;73.60
46754;DHT22;32500;50.620;3.400;2023-07-20T04:22:20;18.80;73.80
46754;DHT22;32500;50.620;3.400;2023-07-20T04:24:47;18.70;73.80
46754;DHT22;32500;50.620;3.400;2023-07-20T04:27:12;18.70;73.80
46754;DHT22;32500;50.620;3.400;2023-07-20T04:29:38;18.70;73.90
46754;DHT22;32500;50.620;3.400;2023-07-20T04:32:04;18.70;73.20
46754;DHT22;32500;50.620;3.400;2023-07-20T04:34:29;18.70;73.60
46754;DHT22;32500;50.620;3.400;2023-07-20T04:36:55;18.60;73.70
46754;DHT22;32500;50.620;3.400;2023-07-20T04:39:20;18.70;73.70
46754;DHT22;32500;50.620;3.400;2023-07-20T04:41:46;18.70;74.00
46754;DHT22;32500;50.620;3.400;2023-07-20T04:44:13;18.70;73.50
46754;DHT22;32500;50.620;3.400;2023-07-20T04:46:39;18.70;73.70
46754;DHT22;32500;50.620;3.400;2023-07-20T04:49:05;18.60;73.90
46754;DHT22;32500;50.620;3.400;2023-07-20T04:51:31;18.70;73.70
46754;DHT22;32500;50.620;3.400;2023-07-20T04:53:57;18.60;74.30
46754;DHT22;32500;50.620;3.400;2023-07-20T04:56:23;18.70;73.70
46754;DHT22;32500;50.620;3.400;2023-07-20T04:58:50;18.70;73.80
46754;DHT22;32500;50.620;3.400;2023-07-20T05:01:15;18.70;73.60
46754;DHT22;32500;50.620;3.400;2023-07-20T05:03:41;18.70;73.40
46754;DHT22;32500;50.620;3.400;2023-07-20T05:06:06;18.60;73.40
46754;DHT22;32500;50.620;3.400;2023-07-20T05:08:32;18.60;73.00
46754;DHT22;32500;50.620;3.400;2023-07-20T05:10:59;18.60;73.40
46754;DHT22;32500;50.620;3.400;2023-07-20T05:13:25;18.60;73.20
46754;DHT22;32500;50.620;3.400;2023-07-20T05:15:51;18.70;73.10
46754;DHT22;32500;50.620;3.400;2023-07-20T05:18:18;18.60;73.80
46754;DHT22;32500;50.620;3.400;2023-07-20T05:20:46;18.70;73.10
46754;DHT22;32500;50.620;3.400;2023-07-20T05:23:12;18.70;72.60
46754;DHT22;32500;50.620;3.400;2023-07-20T05:25:38;18.70;72.60
46754;DHT22;32500;50.620;3.400;2023-07-20T05:28:04;18.70;72.50
46754;DHT22;32500;50.620;3.400;2023-07-20T05:30:29;18.70;72.30
46754;DHT22;32500;50.620;3.400;2023-07-20T05:32:55;18.70;72.80
46754;DHT22;32500;50.620;3.400;2023-07-20T05:35:20;18.70;72.60
46754;DHT22;32500;50.620;3.400;2023-07-20T05:37:52;18.70;72.60
46754;DHT22;32500;50.620;3.400;2023-07-20T05:40:17;18.80;72.90
46754;DHT22;32500;50.620;3.400;2023-07-20T05:42:45;18.80;73.10
46754;DHT22;32500;50.620;3.400;2023-07-20T05:45:12;18.80;73.00
46754;DHT22;32500;50.620;3.400;2023-07-20T05:47:38;18.80;72.90
46754;DHT22;32500;50.620;3.400;2023-07-20T05:50:04;18.80;72.50
46754;DHT22;32500;50.620;3.400;2023-07-20T05:52:29;18.80;72.20
46754;DHT22;32500;50.620;3.400;2023-07-20T05:54:55;18.90;72.20
46754;DHT22;32500;50.620;3.400;2023-07-20T05:57:20;18.90;72.20
46754;DHT22;32500;50.620;3.400;2023-07-20T05:59:46;18.90;71.90
46754;DHT22;32500;50.620;3.400;2023-07-20T06:02:12;19.00;71.80
46754;DHT22;32500;50.620;3.400;2023-07-20T06:04:39;19.00;71.30
46754;DHT22;32500;50.620;3.400;2023-07-20T06:07:05;19.00;71.40
46754;DHT22;32500;50.620;3.400;2023-07-20T06:09:30;19.10;71.10
46754;DHT22;32500;50.620;3.400;2023-07-20T06:11:56;19.10;71.00
46754;DHT22;32500;50.620;3.400;2023-07-20T06:14:22;19.10;70.70
46754;DHT22;32500;50.620;3.400;2023-07-20T06:16:48;19.20;71.10
46754;DHT22;32500;50.620;3.400;2023-07-20T06:19:13;19.20;71.10
46754;DHT22;32500;50.620;3.400;2023-07-20T06:21:39;19.30;70.70
46754;DHT22;32500;50.620;3.400;2023-07-20T06:24:05;19.30;71.00
46754;DHT22;32500;50.620;3.400;2023-07-20T06:26:31;19.40;70.30
46754;DHT22;32500;50.620;3.400;2023-07-20T06:28:57;19.40;69.90
46754;DHT22;32500;50.620;3.400;2023-07-20T06:31:23;19.50;69.80
46754;DHT22;32500;50.620;3.400;2023-07-20T06:33:49;19.50;72.80
46754;DHT22;32500;50.620;3.400;2023-07-20T06:36:18;19.60;70.30
46754;DHT22;32500;50.620;3.400;2023-07-20T06:38:43;19.60;70.70
46754;DHT22;32500;50.620;3.400;2023-07-20T06:41:09;19.60;69.50
46754;DHT22;32500;50.620;3.400;2023-07-20T06:43:34;19.70;70.30
46754;DHT22;32500;50.620;3.400;2023-07-20T06:46:00;19.70;72.10
46754;DHT22;32500;50.620;3.400;2023-07-20T06:48:26;19.80;70.10
46754;DHT22;32500;50.620;3.400;2023-07-20T06:50:51;19.80;69.30
46754;DHT22;32500;50.620;3.400;2023-07-20T06:53:17;19.80;69.50
46754;DHT22;32500;50.620;3.400;2023-07-20T06:55:43;19.90;69.30
46754;DHT22;32500;50.620;3.400;2023-07-20T06:58:10;20.00;70.10
46754;DHT22;32500;50.620;3.400;2023-07-20T07:00:35;20.00;69.80
46754;DHT22;32500;50.620;3.400;2023-07-20T07:03:01;20.10;69.60
46754;DHT22;32500;50.620;3.400;2023-07-20T07:05:28;20.10;70.40
46754;DHT22;32500;50.620;3.400;2023-07-20T07:07:53;20.10;69.30
46754;DHT22;32500;50.620;3.400;2023-07-20T07:10:19;20.10;70.20
46754;DHT22;32500;50.620;3.400;2023-07-20T07:12:44;20.10;69.30
46754;DHT22;32500;50.620;3.400;2023-07-20T07:15:10;20.10;70.10
46754;DHT22;32500;50.620;3.400;2023-07-20T07:17:38;20.20;70.10
46754;DHT22;32500;50.620;3.400;2023-07-20T07:20:05;20.10;70.30
46754;DHT22;32500;50.620;3.400;2023-07-20T07:22:31;20.20;70.00
46754;DHT22;32500;50.620;3.400;2023-07-20T07:24:56;20.20;70.40
46754;DHT22;32500;50.620;3.400;2023-07-20T07:27:22;20.20;69.90
46754;DHT22;32500;50.620;3.400;2023-07-20T07:29:48;20.30;69.70
46754;DHT22;32500;50.620;3.400;2023-07-20T07:32:15;20.30;70.30
46754;DHT22;32500;50.620;3.400;2023-07-20T07:34:41;20.40;70.60
46754;DHT22;32500;50.620;3.400;2023-07-20T07:37:07;20.40;69.50
46754;DHT22;32500;50.620;3.400;2023-07-20T07:39:32;20.50;69.80
46754;DHT22;32500;50.620;3.400;2023-07-20T07:41:58;20.60;73.30
46754;DHT22;32500;50.620;3.400;2023-07-20T07:44:24;20.60;71.00
46754;DHT22;32500;50.620;3.400;2023-07-20T07:46:50;20.70;73.40
46754;DHT22;32500;50.620;3.400;2023-07-20T07:49:16;20.70;72.50
46754;DHT22;32500;50.620;3.400;2023-07-20T07:51:42;20.80;74.40
46754;DHT22;32500;50.620;3.400;2023-07-20T07:54:08;20.80;72.50
46754;DHT22;32500;50.620;3.400;2023-07-20T07:56:33;20.80;73.10
46754;DHT22;32500;50.620;3.400;2023-07-20T07:58:59;20.80;72.10
46754;DHT22;32500;50.620;3.400;2023-07-20T08:01:24;20.90;71.90
46754;DHT22;32500;50.620;3.400;2023-07-20T08:03:50;20.90;72.00
46754;DHT22;32500;50.620;3.400;2023-07-20T08:06:16;21.00;70.50
46754;DHT22;32500;50.620;3.400;2023-07-20T08:08:42;21.00;70.20
46754;DHT22;32500;50.620;3.400;2023-07-20T08:11:08;21.00;69.50
46754;DHT22;32500;50.620;3.400;2023-07-20T08:13:34;21.00;70.10
46754;DHT22;32500;50.620;3.400;2023-07-20T08:16:00;21.00;70.30
46754;DHT22;32500;50.620;3.400;2023-07-20T08:18:27;21.10;70.90
46754;DHT22;32500;50.620;3.400;2023-07-20T08:20:53;21.10;70.40
46754;DHT22;32500;50.620;3.400;2023-07-20T08:23:19;21.10;71.80
46754;DHT22;32500;50.620;3.400;2023-07-20T08:25:45;21.10;71.10
46754;DHT22;32500;50.620;3.400;2023-07-20T08:28:12;21.20;71.20
46754;DHT22;32500;50.620;3.400;2023-07-20T08:30:42;21.20;69.30
46754;DHT22;32500;50.620;3.400;2023-07-20T08:33:09;21.20;70.70
46754;DHT22;32500;50.620;3.400;2023-07-20T08:35:34;21.20;69.90
46754;DHT22;32500;50.620;3.400;2023-07-20T08:38:00;21.20;69.50
46754;DHT22;32500;50.620;3.400;2023-07-20T08:40:26;21.20;71.30
46754;DHT22;32500;50.620;3.400;2023-07-20T08:42:53;21.30;70.30
46754;DHT22;32500;50.620;3.400;2023-07-20T08:45:20;21.30;69.30
46754;DHT22;32500;50.620;3.400;2023-07-20T08:47:47;21.40;70.30
46754;DHT22;32500;50.620;3.400;2023-07-20T08:50:15;21.40;69.00
46754;DHT22;32500;50.620;3.400;2023-07-20T08:52:41;21.50;70.10
46754;DHT22;32500;50.620;3.400;2023-07-20T08:55:07;21.60;69.50
46754;DHT22;32500;50.620;3.400;2023-07-20T08:57:33;21.60;69.60
46754;DHT22;32500;50.620;3.400;2023-07-20T09:00:03;21.60;68.50
46754;DHT22;32500;50.620;3.400;2023-07-20T09:02:39;21.70;68.50
46754;DHT22;32500;50.620;3.400;2023-07-20T09:05:08;21.60;68.90
46754;DHT22;32500;50.620;3.400;2023-07-20T09:07:36;21.70;68.60
46754;DHT22;32500;50.620;3.400;2023-07-20T09:10:02;21.80;68.70
46754;DHT22;32500;50.620;3.400;2023-07-20T09:12:32;21.80;68.10
46754;DHT22;32500;50.620;3.400;2023-07-20T09:14:59;21.80;68.60
46754;DHT22;32500;50.620;3.400;2023-07-20T09:17:26;21.80;68.00
46754;DHT22;32500;50.620;3.400;2023-07-20T09:19:51;21.80;68.40
46754;DHT22;32500;50.620;3.400;2023-07-20T09:22:17;21.80;68.00
46754;DHT22;32500;50.620;3.400;2023-07-20T09:24:43;21.80;68.20
46754;DHT22;32500;50.620;3.400;2023-07-20T09:27:09;21.90;68.10
46754;DHT22;32500;50.620;3.400;2023-07-20T09:29:50;21.90;68.40
46754;DHT22;32500;50.620;3.400;2023-07-20T09:32:20;22.00;67.30
46754;DHT22;32500;50.620;3.400;2023-07-20T09:34:46;22.10;67.10
46754;DHT22;32500;50.620;3.400;2023-07-20T09:37:12;22.10;67.10
46754;DHT22;32500;50.620;3.400;2023-07-20T09:39:45;22.10;67.20
46754;DHT22;32500;50.620;3.400;2023-07-20T09:42:12;22.20;67.30
46754;DHT22;32500;50.620;3.400;2023-07-20T09:44:39;22.30;66.90
46754;DHT22;32500;50.620;3.400;2023-07-20T09:47:05;22.40;66.30
46754;DHT22;32500;50.620;3.400;2023-07-20T09:49:31;22.40;66.50
46754;DHT22;32500;50.620;3.400;2023-07-20T09:51:57;22.40;66.20
46754;DHT22;32500;50.620;3.400;2023-07-20T09:54:27;22.40;66.20
46754;DHT22;32500;50.620;3.400;2023-07-20T09:56:54;22.40;65.60
46754;DHT22;32500;50.620;3.400;2023-07-20T09:59:20;22.50;66.70
46754;DHT22;32500;50.620;3.400;2023-07-20T10:01:46;22.50;66.70
46754;DHT22;32500;50.620;3.400;2023-07-20T10:04:14;22.50;66.30
46754;DHT22;32500;50.620;3.400;2023-07-20T10:06:43;22.50;66.80
46754;DHT22;32500;50.620;3.400;2023-07-20T10:09:12;22.60;66.90
46754;DHT22;32500;50.620;3.400;2023-07-20T10:11:46;22.60;65.30
46754;DHT22;32500;50.620;3.400;2023-07-20T10:14:20;22.60;66.10
46754;DHT22;32500;50.620;3.400;2023-07-20T10:16:57;22.60;64.70
46754;DHT22;32500;50.620;3.400;2023-07-20T10:19:42;22.60;64.20
46754;DHT22;32500;50.620;3.400;2023-07-20T10:22:16;22.60;63.20
46754;DHT22;32500;50.620;3.400;2023-07-20T10:24:46;22.60;63.50
46754;DHT22;32500;50.620;3.400;2023-07-20T10:27:13;22.50;65.10
46754;DHT22;32500;50.620;3.400;2023-07-20T10:29:40;22.60;64.10
46754;DHT22;32500;50.620;3.400;2023-07-20T10:32:07;22.60;64.30
46754;DHT22;32500;50.620;3.400;2023-07-20T10:34:33;22.60;63.70
46754;DHT22;32500;50.620;3.400;2023-07-20T10:36:59;22.60;63.80
46754;DHT22;32500;50.620;3.400;2023-07-20T10:39:26;22.60;62.60
46754;DHT22;32500;50.620;3.400;2023-07-20T10:42:03;22.60;61.70
46754;DHT22;32500;50.620;3.400;2023-07-20T10:44:31;22.60;63.80
46754;DHT22;32500;50.620;3.400;2023-07-20T10:47:01;22.60;63.00
46754;DHT22;32500;50.620;3.400;2023-07-20T10:49:28;22.60;64.30
46754;DHT22;32500;50.620;3.400;2023-07-20T10:51:58;22.60;63.70
46754;DHT22;32500;50.620;3.400;2023-07-20T10:56:52;22.60;62.40
46754;DHT22;32500;50.620;3.400;2023-07-20T10:59:36;22.70;62.60
46754;DHT22;32500;50.620;3.400;2023-07-20T11:02:07;22.70;62.50
46754;DHT22;32500;50.620;3.400;2023-07-20T11:04:40;22.70;62.50
46754;DHT22;32500;50.620;3.400;2023-07-20T11:07:06;22.70;62.30
46754;DHT22;32500;50.620;3.400;2023-07-20T11:09:37;22.80;63.50
46754;DHT22;32500;50.620;3.400;2023-07-20T11:12:16;22.80;62.20
46754;DHT22;32500;50.620;3.400;2023-07-20T11:14:53;22.80;62.50
46754;DHT22;32500;50.620;3.400;2023-07-20T11:17:19;22.90;64.10
46754;DHT22;32500;50.620;3.400;2023-07-20T11:19:55;22.90;63.50
46754;DHT22;32500;50.620;3.400;2023-07-20T11:22:21;22.90;64.60
46754;DHT22;32500;50.620;3.400;2023-07-20T11:24:47;22.90;65.60
46754;DHT22;32500;50.620;3.400;2023-07-20T11:27:14;22.90;64.80
46754;DHT22;32500;50.620;3.400;2023-07-20T11:29:40;22.90;64.60
46754;DHT22;32500;50.620;3.400;2023-07-20T11:32:06;22.90;64.10
46754;DHT22;32500;50.620;3.400;2023-07-20T11:34:33;23.00;64.00
46754;DHT22;32500;50.620;3.400;2023-07-20T11:36:59;23.00;65.00
46754;DHT22;32500;50.620;3.400;2023-07-20T11:39:25;23.00;64.60
46754;DHT22;32500;50.620;3.400;2023-07-20T11:41:53;23.00;64.20
46754;DHT22;32500;50.620;3.400;2023-07-20T11:44:19;23.10;65.40
46754;DHT22;32500;50.620;3.400;2023-07-20T11:46:46;23.10;63.80
46754;DHT22;32500;50.620;3.400;2023-07-20T11:49:12;23.10;65.10
46754;DHT22;32500;50.620;3.400;2023-07-20T11:51:39;23.10;65.00
46754;DHT22;32500;50.620;3.400;2023-07-20T11:54:06;23.10;64.40
46754;DHT22;32500;50.620;3.400;2023-07-20T11:56:32;23.10;64.60
46754;DHT22;32500;50.620;3.400;2023-07-20T11:58:58;23.20;64.80
46754;DHT22;32500;50.620;3.400;2023-07-20T12:01:26;23.20;64.90
46754;DHT22;32500;50.620;3.400;2023-07-20T12:03:58;23.20;63.50
46754;DHT22;32500;50.620;3.400;2023-07-20T12:06:25;23.20;63.80
46754;DHT22;32500;50.620;3.400;2023-07-20T12:08:54;23.30;64.90
46754;DHT22;32500;50.620;3.400;2023-07-20T12:11:37;23.30;63.60
46754;DHT22;32500;50.620;3.400;2023-07-20T12:14:06;23.30;63.60
46754;DHT22;32500;50.620;3.400;2023-07-20T12:16:32;23.30;63.90
46754;DHT22;32500;50.620;3.400;2023-07-20T12:19:12;23.40;64.30
46754;DHT22;32500;50.620;3.400;2023-07-20T12:21:40;23.40;64.30
46754;DHT22;32500;50.620;3.400;2023-07-20T12:24:06;23.40;63.60
46754;DHT22;32500;50.620;3.400;2023-07-20T12:26:33;23.50;63.30
46754;DHT22;32500;50.620;3.400;2023-07-20T12:28:59;23.50;63.50
46754;DHT22;32500;50.620;3.400;2023-07-20T12:31:25;23.60;63.80
46754;DHT22;32500;50.620;3.400;2023-07-20T12:33:52;23.60;63.10
46754;DHT22;32500;50.620;3.400;2023-07-20T12:36:18;23.60;64.50
46754;DHT22;32500;50.620;3.400;2023-07-20T12:38:45;23.60;63.60
46754;DHT22;32500;50.620;3.400;2023-07-20T12:41:11;23.70;63.70
46754;DHT22;32500;50.620;3.400;2023-07-20T12:43:41;23.70;63.80
46754;DHT22;32500;50.620;3.400;2023-07-20T12:46:07;23.70;63.10
46754;DHT22;32500;50.620;3.400;2023-07-20T12:48:33;23.70;62.70
46754;DHT22;32500;50.620;3.400;2023-07-20T12:50:59;23.80;61.40
46754;DHT22;32500;50.620;3.400;2023-07-20T12:53:24;23.80;60.70
46754;DHT22;32500;50.620;3.400;2023-07-20T12:55:50;23.80;60.50
46754;DHT22;32500;50.620;3.400;2023-07-20T12:58:15;23.80;59.70
46754;DHT22;32500;50.620;3.400;2023-07-20T13:00:41;23.80;60.00
46754;DHT22;32500;50.620;3.400;2023-07-20T13:03:07;23.90;60.40
46754;DHT22;32500;50.620;3.400;2023-07-20T13:05:34;23.90;62.30
46754;DHT22;32500;50.620;3.400;2023-07-20T13:08:01;23.90;60.90
46754;DHT22;32500;50.620;3.400;2023-07-20T13:10:27;23.90;61.40
46754;DHT22;32500;50.620;3.400;2023-07-20T13:12:54;23.90;61.70
46754;DHT22;32500;50.620;3.400;2023-07-20T13:15:19;23.90;61.20
46754;DHT22;32500;50.620;3.400;2023-07-20T13:17:45;23.90;60.90
46754;DHT22;32500;50.620;3.400;2023-07-20T13:20:11;24.00;61.80
46754;DHT22;32500;50.620;3.400;2023-07-20T13:22:38;24.00;61.40
46754;DHT22;32500;50.620;3.400;2023-07-20T13:25:04;24.00;61.40
46754;DHT22;32500;50.620;3.400;2023-07-20T13:27:29;24.00;60.10
46754;DHT22;32500;50.620;3.400;2023-07-20T13:29:57;24.10;60.00
46754;DHT22;32500;50.620;3.400;2023-07-20T13:32:23;24.10;59.50
46754;DHT22;32500;50.620;3.400;2023-07-20T13:34:48;24.10;59.50
46754;DHT22;32500;50.620;3.400;2023-07-20T13:37:15;24.20;58.20
46754;DHT22;32500;50.620;3.400;2023-07-20T13:39:41;24.20;58.30
46754;DHT22;32500;50.620;3.400;2023-07-20T13:42:07;24.20;58.10
46754;DHT22;32500;50.620;3.400;2023-07-20T13:44:34;24.20;58.70
46754;DHT22;32500;50.620;3.400;2023-07-20T13:47:01;24.30;58.10
46754;DHT22;32500;50.620;3.400;2023-07-20T13:49:26;24.30;58.40
46754;DHT22;32500;50.620;3.400;2023-07-20T13:51:52;24.30;59.60
46754;DHT22;32500;50.620;3.400;2023-07-20T13:54:18;24.20;59.50
46754;DHT22;32500;50.620;3.400;2023-07-20T13:56:43;24.20;59.70
46754;DHT22;32500;50.620;3.400;2023-07-20T13:59:09;24.20;60.70
46754;DHT22;32500;50.620;3.400;2023-07-20T14:01:34;24.20;61.50
46754;DHT22;32500;50.620;3.400;2023-07-20T14:04:01;24.20;60.60
46754;DHT22;32500;50.620;3.400;2023-07-20T14:06:30;24.20;60.20
46754;DHT22;32500;50.620;3.400;2023-07-20T14:08:57;24.20;52.90
46754;DHT22;32500;50.620;3.400;2023-07-20T14:11:23;24.20;53.50
46754;DHT22;32500;50.620;3.400;2023-07-20T14:13:50;24.10;54.90
46754;DHT22;32500;50.620;3.400;2023-07-20T14:16:16;23.70;57.40
46754;DHT22;32500;50.620;3.400;2023-07-20T14:18:41;23.40;58.90
46754;DHT22;32500;50.620;3.400;2023-07-20T14:21:07;23.10;60.30
46754;DHT22;32500;50.620;3.400;2023-07-20T14:23:33;23.00;60.90
46754;DHT22;32500;50.620;3.400;2023-07-20T14:25:59;22.80;62.70
46754;DHT22;32500;50.620;3.400;2023-07-20T14:28:24;22.70;63.40
46754;DHT22;32500;50.620;3.400;2023-07-20T14:30:50;22.90;63.90
46754;DHT22;32500;50.620;3.400;2023-07-20T14:33:16;22.90;63.60
46754;DHT22;32500;50.620;3.400;2023-07-20T14:35:41;22.90;63.80
46754;DHT22;32500;50.620;3.400;2023-07-20T14:38:07;22.80;63.70
46754;DHT22;32500;50.620;3.400;2023-07-20T14:40:32;22.80;63.90
46754;DHT22;32500;50.620;3.400;2023-07-20T14:42:58;22.70;63.70
46754;DHT22;32500;50.620;3.400;2023-07-20T14:45:29;22.80;64.00
46754;DHT22;32500;50.620;3.400;2023-07-20T14:47:55;22.60;63.90
46754;DHT22;32500;50.620;3.400;2023-07-20T14:50:21;22.60;64.30
46754;DHT22;32500;50.620;3.400;2023-07-20T14:52:47;22.70;64.30
46754;DHT22;32500;50.620;3.400;2023-07-20T14:55:13;22.80;64.30
46754;DHT22;32500;50.620;3.400;2023-07-20T14:57:38;22.90;63.80
46754;DHT22;32500;50.620;3.400;2023-07-20T15:00:05;23.00;63.90
46754;DHT22;32500;50.620;3.400;2023-07-20T15:02:39;23.00;63.50
46754;DHT22;32500;50.620;3.400;2023-07-20T15:05:08;23.00;62.10
46754;DHT22;32500;50.620;3.400;2023-07-20T15:07:34;23.00;63.30
46754;DHT22;32500;50.620;3.400;2023-07-20T15:10:04;23.20;62.80
46754;DHT22;32500;50.620;3.400;2023-07-20T15:12:30;23.20;61.50
46754;DHT22;32500;50.620;3.400;2023-07-20T15:15:07;23.30;62.30
46754;DHT22;32500;50.620;3.400;2023-07-20T15:17:34;23.30;62.20
46754;DHT22;32500;50.620;3.400;2023-07-20T15:20:00;23.40;61.80
46754;DHT22;32500;50.620;3.400;2023-07-20T15:22:26;23.40;61.40
46754;DHT22;32500;50.620;3.400;2023-07-20T15:24:51;23.30;61.40
46754;DHT22;32500;50.620;3.400;2023-07-20T15:27:17;23.40;62.70
46754;DHT22;32500;50.620;3.400;2023-07-20T15:29:42;23.40;62.60
46754;DHT22;32500;50.620;3.400;2023-07-20T15:32:10;23.40;61.90
46754;DHT22;32500;50.620;3.400;2023-07-20T15:34:35;23.40;62.40
46754;DHT22;32500;50.620;3.400;2023-07-20T15:37:01;23.40;62.30